createdAt,value
2019-02-19T00:00:00.364Z,7
2019-02-19T00:01:09.534Z,7
2019-02-19T00:02:18.822Z,7.1
2019-02-19T00:03:28.123Z,7.1
2019-02-19T00:04:37.526Z,7.2
2019-02-19T00:05:46.693Z,7.1
2019-02-19T00:06:55.986Z,7
2019-02-19T00:08:05.277Z,7.1
2019-02-19T00:09:14.629Z,7
2019-02-19T00:10:23.853Z,7
2019-02-19T00:11:33.139Z,7
2019-02-19T00:12:42.430Z,6.9
2019-02-19T00:13:51.712Z,6.9
2019-02-19T00:15:07.828Z,6.9
2019-02-19T00:16:10.284Z,6.9
2019-02-19T00:17:19.589Z,7
2019-02-19T00:18:28.855Z,7
2019-02-19T00:19:38.148Z,7
2019-02-19T00:20:47.505Z,7
2019-02-19T00:21:56.722Z,6.9
2019-02-19T00:23:06.002Z,6.9
2019-02-19T00:24:15.295Z,6.9
2019-02-19T00:25:24.662Z,7
2019-02-19T00:26:33.875Z,6.9
2019-02-19T00:27:43.153Z,6.9
2019-02-19T00:28:52.444Z,6.8
2019-02-19T00:30:01.748Z,6.8
2019-02-19T00:31:11.005Z,6.8
2019-02-19T00:32:20.291Z,6.7
2019-02-19T00:33:29.593Z,6.7
2019-02-19T00:34:38.863Z,6.6
2019-02-19T00:35:48.212Z,6.6
2019-02-19T00:36:57.524Z,6.7
2019-02-19T00:38:06.706Z,6.6
2019-02-19T00:39:15.988Z,6.6
2019-02-19T00:40:25.267Z,6.6
2019-02-19T00:41:34.620Z,6.6
2019-02-19T00:42:43.830Z,6.6
2019-02-19T00:43:53.109Z,6.5
2019-02-19T00:45:02.543Z,6.6
2019-02-19T00:46:11.671Z,6.5
2019-02-19T00:47:20.952Z,6.4
2019-02-19T00:48:30.236Z,6.4
2019-02-19T00:49:39.497Z,6.4
2019-02-19T00:50:48.777Z,6.3
2019-02-19T00:51:58.153Z,6.3
2019-02-19T00:53:07.346Z,6.3
2019-02-19T00:54:16.601Z,6.3
2019-02-19T00:55:25.946Z,6.2
2019-02-19T00:56:35.179Z,6.2
2019-02-19T00:57:44.441Z,6.2
2019-02-19T00:58:53.692Z,6.2
2019-02-19T01:00:03.055Z,6.2
2019-02-19T01:01:12.290Z,6.3
2019-02-19T01:02:21.515Z,6.2
2019-02-19T01:03:30.778Z,6.2
2019-02-19T01:04:40.043Z,6.2
2019-02-19T01:05:49.392Z,6.2
2019-02-19T01:06:58.694Z,6.1
2019-02-19T01:08:07.856Z,6.2
2019-02-19T01:09:17.114Z,6.2
2019-02-19T01:10:26.388Z,6.2
2019-02-19T01:11:35.650Z,6.2
2019-02-19T01:12:44.925Z,6.1
2019-02-19T01:13:54.221Z,6.1
2019-02-19T01:15:03.495Z,6.1
2019-02-19T01:16:12.720Z,6.2
2019-02-19T01:17:21.973Z,6.2
2019-02-19T01:18:31.416Z,6.2
2019-02-19T01:19:40.502Z,6.2
2019-02-19T01:20:49.775Z,6.2
2019-02-19T01:21:59.043Z,6.2
2019-02-19T01:23:08.310Z,6.2
2019-02-19T01:24:17.603Z,6.2
2019-02-19T01:25:26.873Z,6.1
2019-02-19T01:26:36.108Z,6.1
2019-02-19T01:27:45.373Z,6.1
2019-02-19T01:28:54.731Z,6.1
2019-02-19T01:30:03.938Z,6.2
2019-02-19T01:31:13.175Z,6.1
2019-02-19T01:32:22.433Z,6
2019-02-19T01:33:31.789Z,6
2019-02-19T01:34:41.049Z,6
2019-02-19T01:35:50.223Z,6
2019-02-19T01:36:59.486Z,6
2019-02-19T01:38:08.757Z,5.9
2019-02-19T01:39:18.015Z,6
2019-02-19T01:40:27.277Z,6
2019-02-19T01:41:36.559Z,6
2019-02-19T01:42:45.809Z,6
2019-02-19T01:43:55.116Z,5.9
2019-02-19T01:45:04.331Z,6
2019-02-19T01:46:13.612Z,5.9
2019-02-19T01:47:22.874Z,5.9
2019-02-19T01:48:32.119Z,6
2019-02-19T01:49:41.565Z,6
2019-02-19T01:50:50.641Z,6
2019-02-19T01:51:59.895Z,6
2019-02-19T01:53:09.161Z,6
2019-02-19T01:54:18.414Z,6
2019-02-19T01:55:27.671Z,6.1
2019-02-19T01:56:37.057Z,6
2019-02-19T01:57:46.255Z,6
2019-02-19T01:58:55.464Z,6.1
2019-02-19T02:00:04.707Z,6
2019-02-19T02:01:13.999Z,6.1
2019-02-19T02:02:23.234Z,6
2019-02-19T02:03:32.639Z,6.1
2019-02-19T02:04:41.737Z,6
2019-02-19T02:05:51.123Z,6.1
2019-02-19T02:07:00.263Z,6.1
2019-02-19T02:08:09.518Z,6.2
2019-02-19T02:09:18.781Z,6.1
2019-02-19T02:10:28.049Z,6.1
2019-02-19T02:11:37.286Z,6.2
2019-02-19T02:12:46.540Z,6.2
2019-02-19T02:13:55.821Z,6.2
2019-02-19T02:15:05.075Z,6.2
2019-02-19T02:16:14.323Z,6.3
2019-02-19T02:17:23.594Z,6.2
2019-02-19T02:18:32.852Z,6.2
2019-02-19T02:19:42.109Z,6.2
2019-02-19T02:20:51.366Z,6.2
2019-02-19T02:22:00.668Z,6.2
2019-02-19T02:23:09.948Z,6.2
2019-02-19T02:24:19.178Z,6.2
2019-02-19T02:25:28.429Z,6.2
2019-02-19T02:26:37.679Z,6.1
2019-02-19T02:27:46.953Z,6.1
2019-02-19T02:28:56.219Z,6.2
2019-02-19T02:30:05.500Z,6.2
2019-02-19T02:31:14.745Z,6.3
2019-02-19T02:32:24.004Z,6.3
2019-02-19T02:33:33.265Z,6.2
2019-02-19T02:34:42.569Z,6.3
2019-02-19T02:35:51.922Z,6.3
2019-02-19T02:37:01.062Z,6.4
2019-02-19T02:38:10.397Z,6.4
2019-02-19T02:39:19.597Z,6.4
2019-02-19T02:40:28.907Z,6.4
2019-02-19T02:41:38.131Z,6.4
2019-02-19T02:42:47.428Z,6.4
2019-02-19T02:43:56.660Z,6.3
2019-02-19T02:45:05.962Z,6.4
2019-02-19T02:46:15.210Z,6.4
2019-02-19T02:47:24.537Z,6.4
2019-02-19T02:48:33.776Z,6.3
2019-02-19T02:49:42.999Z,6.3
2019-02-19T02:50:52.264Z,6.3
2019-02-19T02:52:01.540Z,6.3
2019-02-19T02:53:10.816Z,6.2
2019-02-19T02:54:20.095Z,6.2
2019-02-19T02:55:29.341Z,6.3
2019-02-19T02:56:38.664Z,6.3
2019-02-19T02:57:47.926Z,6.3
2019-02-19T02:58:57.140Z,6.3
2019-02-19T03:00:06.407Z,6.3
2019-02-19T03:01:15.676Z,6.3
2019-02-19T03:02:24.942Z,6.3
2019-02-19T03:03:34.217Z,6.3
2019-02-19T03:04:43.508Z,6.3
2019-02-19T03:05:52.756Z,6.2
2019-02-19T03:07:02.034Z,6.2
2019-02-19T03:08:11.427Z,6.2
2019-02-19T03:09:20.553Z,6.2
2019-02-19T03:10:29.835Z,6.3
2019-02-19T03:11:39.084Z,6.3
2019-02-19T03:12:48.386Z,6.3
2019-02-19T03:13:57.617Z,6.3
2019-02-19T03:15:06.935Z,6.3
2019-02-19T03:16:16.195Z,6.3
2019-02-19T03:17:25.430Z,6.3
2019-02-19T03:18:34.710Z,6.3
2019-02-19T03:19:43.967Z,6.3
2019-02-19T03:20:53.232Z,6.2
2019-02-19T03:22:02.506Z,6.2
2019-02-19T03:23:11.774Z,6.2
2019-02-19T03:24:21.088Z,6.2
2019-02-19T03:25:30.290Z,6.3
2019-02-19T03:26:39.633Z,6.2
2019-02-19T03:27:48.837Z,6.1
2019-02-19T03:28:58.092Z,6.2
2019-02-19T03:30:07.375Z,6.1
2019-02-19T03:31:16.638Z,6.1
2019-02-19T03:32:25.885Z,6.2
2019-02-19T03:33:35.165Z,6.2
2019-02-19T03:34:44.444Z,6.2
2019-02-19T03:35:53.698Z,6.1
2019-02-19T03:37:02.948Z,6.1
2019-02-19T03:38:12.223Z,6.1
2019-02-19T03:39:21.514Z,6.2
2019-02-19T03:40:30.761Z,6.1
2019-02-19T03:41:40.027Z,6.1
2019-02-19T03:42:49.272Z,6.1
2019-02-19T03:43:58.544Z,6
2019-02-19T03:45:07.805Z,6.2
2019-02-19T03:46:17.068Z,6.2
2019-02-19T03:47:26.374Z,6.2
2019-02-19T03:48:35.620Z,6.2
2019-02-19T03:49:44.873Z,6.1
2019-02-19T03:50:54.127Z,6.2
2019-02-19T03:52:03.426Z,6.2
2019-02-19T03:53:12.638Z,6.2
2019-02-19T03:54:21.942Z,6.3
2019-02-19T03:55:31.231Z,6.2
2019-02-19T03:56:40.437Z,6.3
2019-02-19T03:57:49.719Z,6.2
2019-02-19T03:58:58.991Z,6.3
2019-02-19T04:00:08.260Z,6.2
2019-02-19T04:01:17.505Z,6.2
2019-02-19T04:02:26.777Z,6.2
2019-02-19T04:03:36.026Z,6.1
2019-02-19T04:04:45.346Z,6.1
2019-02-19T04:05:54.564Z,6.1
2019-02-19T04:07:03.923Z,6
2019-02-19T04:08:13.091Z,6
2019-02-19T04:09:22.370Z,6.1
2019-02-19T04:10:31.615Z,6.1
2019-02-19T04:11:40.951Z,6.1
2019-02-19T04:12:50.142Z,6.1
2019-02-19T04:13:59.403Z,6.1
2019-02-19T04:15:08.668Z,6
2019-02-19T04:16:21.215Z,6
2019-02-19T04:17:27.213Z,6
2019-02-19T04:18:36.460Z,6
2019-02-19T04:19:45.724Z,6
2019-02-19T04:20:55.033Z,6
2019-02-19T04:22:04.244Z,5.9
2019-02-19T04:23:13.507Z,6
2019-02-19T04:24:22.762Z,6.1
2019-02-19T04:25:32.019Z,6.1
2019-02-19T04:26:41.300Z,6.1
2019-02-19T04:27:50.574Z,6.1
2019-02-19T04:28:59.804Z,6.1
2019-02-19T04:30:09.067Z,6.1
2019-02-19T04:31:18.346Z,6
2019-02-19T04:32:27.636Z,6.1
2019-02-19T04:33:36.856Z,6
2019-02-19T04:34:46.182Z,6
2019-02-19T04:35:55.373Z,6
2019-02-19T04:37:04.650Z,5.9
2019-02-19T04:38:13.918Z,6
2019-02-19T04:39:23.216Z,5.9
2019-02-19T04:40:32.519Z,6
2019-02-19T04:41:41.679Z,5.9
2019-02-19T04:42:50.960Z,5.9
2019-02-19T04:44:00.190Z,6
2019-02-19T04:45:09.471Z,6
2019-02-19T04:46:18.732Z,6
2019-02-19T04:47:27.988Z,5.9
2019-02-19T04:48:37.233Z,6
2019-02-19T04:49:46.490Z,5.9
2019-02-19T04:50:55.833Z,5.9
2019-02-19T04:52:05.006Z,5.8
2019-02-19T04:53:14.394Z,5.9
2019-02-19T04:54:23.528Z,5.8
2019-02-19T04:55:32.780Z,5.8
2019-02-19T04:56:42.048Z,5.8
2019-02-19T04:57:51.309Z,5.8
2019-02-19T04:59:00.563Z,5.9
2019-02-19T05:00:09.903Z,5.8
2019-02-19T05:01:19.140Z,5.8
2019-02-19T05:02:28.342Z,5.8
2019-02-19T05:03:37.588Z,5.7
2019-02-19T05:04:46.862Z,5.7
2019-02-19T05:05:56.110Z,5.7
2019-02-19T05:07:05.412Z,5.8
2019-02-19T05:08:14.751Z,5.7
2019-02-19T05:09:23.892Z,5.8
2019-02-19T05:10:33.126Z,5.7
2019-02-19T05:11:42.385Z,5.7
2019-02-19T05:12:51.643Z,5.7
2019-02-19T05:14:00.908Z,5.7
2019-02-19T05:15:10.161Z,5.7
2019-02-19T05:16:19.405Z,5.6
2019-02-19T05:17:28.676Z,5.6
2019-02-19T05:18:37.911Z,5.6
2019-02-19T05:19:47.162Z,5.6
2019-02-19T05:20:56.432Z,5.6
2019-02-19T05:22:05.693Z,5.6
2019-02-19T05:23:14.913Z,5.7
2019-02-19T05:24:24.184Z,5.8
2019-02-19T05:25:33.416Z,5.7
2019-02-19T05:26:42.684Z,5.7
2019-02-19T05:27:51.932Z,5.7
2019-02-19T05:29:01.230Z,5.7
2019-02-19T05:30:10.461Z,5.7
2019-02-19T05:31:19.688Z,5.7
2019-02-19T05:32:28.992Z,5.8
2019-02-19T05:33:38.203Z,5.7
2019-02-19T05:34:47.531Z,5.7
2019-02-19T05:35:56.679Z,5.6
2019-02-19T05:37:05.971Z,5.6
2019-02-19T05:38:15.187Z,5.6
2019-02-19T05:39:24.486Z,5.5
2019-02-19T05:40:33.690Z,5.5
2019-02-19T05:41:42.962Z,5.5
2019-02-19T05:42:52.199Z,5.5
2019-02-19T05:44:01.445Z,5.5
2019-02-19T05:45:10.693Z,5.5
2019-02-19T05:46:19.936Z,5.6
2019-02-19T05:47:29.250Z,5.6
2019-02-19T05:48:38.435Z,5.6
2019-02-19T05:49:47.695Z,5.5
2019-02-19T05:50:56.962Z,5.4
2019-02-19T05:52:06.189Z,5.5
2019-02-19T05:53:15.439Z,5.5
2019-02-19T05:54:24.684Z,5.5
2019-02-19T05:55:33.953Z,5.4
2019-02-19T05:56:43.198Z,5.5
2019-02-19T05:57:52.431Z,5.5
2019-02-19T05:59:01.718Z,5.5
2019-02-19T06:00:10.955Z,5.5
2019-02-19T06:01:20.211Z,5.5
2019-02-19T06:02:29.436Z,5.5
2019-02-19T06:03:38.716Z,5.5
2019-02-19T06:04:47.927Z,5.5
2019-02-19T06:05:57.177Z,5.5
2019-02-19T06:07:06.624Z,5.6
2019-02-19T06:08:15.672Z,5.6
2019-02-19T06:09:24.918Z,5.6
2019-02-19T06:10:34.179Z,5.6
2019-02-19T06:11:43.417Z,5.6
2019-02-19T06:12:52.701Z,5.6
2019-02-19T06:14:03.620Z,5.6
2019-02-19T06:15:12.763Z,5.6
2019-02-19T06:16:22.175Z,5.6
2019-02-19T06:17:31.338Z,5.6
2019-02-19T06:18:40.519Z,5.6
2019-02-19T06:19:49.814Z,5.6
2019-02-19T06:20:59.002Z,5.6
2019-02-19T06:22:08.263Z,5.6
2019-02-19T06:23:17.647Z,5.6
2019-02-19T06:24:26.811Z,5.7
2019-02-19T06:25:36.006Z,5.7
2019-02-19T06:26:45.261Z,5.7
2019-02-19T06:27:54.516Z,5.7
2019-02-19T06:29:03.769Z,5.8
2019-02-19T06:30:13.029Z,5.8
2019-02-19T06:31:22.339Z,5.8
2019-02-19T06:32:31.519Z,5.8
2019-02-19T06:33:40.837Z,5.8
2019-02-19T06:34:50.049Z,5.8
2019-02-19T06:35:59.297Z,5.9
2019-02-19T06:37:08.548Z,5.9
2019-02-19T06:38:17.852Z,5.9
2019-02-19T06:39:27.138Z,5.9
2019-02-19T06:40:36.324Z,5.9
2019-02-19T06:41:45.594Z,6
2019-02-19T06:42:54.849Z,6
2019-02-19T06:44:04.090Z,5.9
2019-02-19T06:45:13.384Z,5.9
2019-02-19T06:46:22.621Z,5.9
2019-02-19T06:47:31.865Z,6
2019-02-19T06:48:41.137Z,6
2019-02-19T06:49:50.462Z,6.1
2019-02-19T06:50:59.704Z,6.1
2019-02-19T06:52:08.914Z,6.1
2019-02-19T06:53:18.236Z,6.2
2019-02-19T06:54:27.439Z,6.2
2019-02-19T06:55:36.700Z,6.3
2019-02-19T06:56:45.966Z,6.3
2019-02-19T06:57:55.230Z,6.3
2019-02-19T06:59:04.504Z,6.4
2019-02-19T07:00:13.760Z,6.4
2019-02-19T07:01:23.033Z,6.4
2019-02-19T07:02:32.354Z,6.5
2019-02-19T07:03:41.643Z,6.6
2019-02-19T07:04:50.843Z,6.6
2019-02-19T07:06:00.107Z,6.7
2019-02-19T07:07:09.386Z,6.8
2019-02-19T07:08:18.652Z,6.8
2019-02-19T07:09:27.914Z,6.9
2019-02-19T07:10:37.218Z,7
2019-02-19T07:11:46.473Z,7
2019-02-19T07:12:55.751Z,7.1
2019-02-19T07:14:05.042Z,7.2
2019-02-19T07:15:14.356Z,7.2
2019-02-19T07:16:23.625Z,7.3
2019-02-19T07:17:32.879Z,7.3
2019-02-19T07:18:42.165Z,7.5
2019-02-19T07:19:51.441Z,7.5
2019-02-19T07:21:00.733Z,7.5
2019-02-19T07:22:10.023Z,7.6
2019-02-19T07:23:19.308Z,7.6
2019-02-19T07:24:28.695Z,7.7
2019-02-19T07:25:37.964Z,7.7
2019-02-19T07:26:47.343Z,7.7
2019-02-19T07:27:56.519Z,7.8
2019-02-19T07:29:05.797Z,7.8
2019-02-19T07:30:15.087Z,7.8
2019-02-19T07:31:24.381Z,7.9
2019-02-19T07:32:33.684Z,7.8
2019-02-19T07:33:42.999Z,7.9
2019-02-19T07:34:52.289Z,8
2019-02-19T07:36:01.644Z,7.9
2019-02-19T07:37:10.930Z,8
2019-02-19T07:38:20.202Z,8
2019-02-19T07:39:29.553Z,8.1
2019-02-19T07:40:38.832Z,8.1
2019-02-19T07:41:48.140Z,8
2019-02-19T07:42:57.447Z,8.1
2019-02-19T07:44:06.769Z,8.1
2019-02-19T07:45:16.119Z,8
2019-02-19T07:46:25.476Z,8.1
2019-02-19T07:47:34.700Z,8.2
2019-02-19T07:48:44.017Z,8.1
2019-02-19T07:49:53.322Z,8.1
2019-02-19T07:51:02.683Z,8.1
2019-02-19T07:52:11.957Z,8.2
2019-02-19T07:53:21.288Z,8.2
2019-02-19T07:54:30.614Z,8.3
2019-02-19T07:55:39.930Z,8.2
2019-02-19T07:56:49.299Z,8.2
2019-02-19T07:57:58.625Z,8.3
2019-02-19T07:59:07.892Z,8.3
2019-02-19T08:00:17.223Z,8.3
2019-02-19T08:01:26.566Z,8.3
2019-02-19T08:02:36.115Z,8.4
2019-02-19T08:03:45.217Z,8.5
2019-02-19T08:05:09.501Z,8.5
2019-02-19T08:06:03.879Z,8.5
2019-02-19T08:07:13.191Z,8.6
2019-02-19T08:08:22.539Z,8.6
2019-02-19T08:09:31.879Z,8.6
2019-02-19T08:10:41.230Z,8.7
2019-02-19T08:11:50.523Z,8.7
2019-02-19T08:12:59.976Z,8.7
2019-02-19T08:14:09.273Z,8.8
2019-02-19T08:15:18.547Z,8.9
2019-02-19T08:16:28.414Z,8.9
2019-02-19T08:17:37.231Z,9
2019-02-19T08:18:46.585Z,8.9
2019-02-19T08:19:55.975Z,9
2019-02-19T08:21:05.258Z,9.1
2019-02-19T08:22:14.598Z,9
2019-02-19T08:23:24.001Z,9.1
2019-02-19T08:24:33.335Z,9.2
2019-02-19T08:25:42.648Z,9.4
2019-02-19T08:26:52.018Z,9.3
2019-02-19T08:28:01.383Z,9.3
2019-02-19T08:29:13.595Z,9.3
2019-02-19T08:30:20.062Z,9.4
2019-02-19T08:31:29.445Z,9.4
2019-02-19T08:32:38.776Z,9.4
2019-02-19T08:33:48.360Z,9.5
2019-02-19T08:34:57.499Z,9.5
2019-02-19T08:36:06.871Z,9.6
2019-02-19T08:37:16.257Z,9.5
2019-02-19T08:38:25.575Z,9.5
2019-02-19T08:39:34.951Z,9.5
2019-02-19T08:40:44.291Z,9.3
2019-02-19T08:41:53.653Z,9.4
2019-02-19T08:43:03.036Z,9.5
2019-02-19T08:44:12.382Z,9.5
2019-02-19T08:45:21.749Z,9.4
2019-02-19T08:46:31.323Z,9.5
2019-02-19T08:47:42.823Z,9.4
2019-02-19T08:48:49.869Z,9.4
2019-02-19T08:49:59.201Z,9.3
2019-02-19T08:51:08.582Z,9.3
2019-02-19T08:52:18.738Z,9.4
2019-02-19T08:53:27.282Z,9.4
2019-02-19T08:54:36.653Z,9.4
2019-02-19T08:55:46.021Z,9.4
2019-02-19T08:56:55.402Z,9.4
2019-02-19T08:58:04.747Z,9.5
2019-02-19T08:59:14.111Z,9.5
2019-02-19T09:00:23.481Z,9.6
2019-02-19T09:01:32.843Z,9.6
2019-02-19T09:02:42.248Z,9.6
2019-02-19T09:03:51.595Z,9.7
2019-02-19T09:05:01.017Z,9.6
2019-02-19T09:06:10.381Z,9.7
2019-02-19T09:07:19.877Z,9.7
2019-02-19T09:08:29.078Z,9.6
2019-02-19T09:09:38.565Z,9.6
2019-02-19T09:10:47.884Z,9.6
2019-02-19T09:11:57.212Z,9.6
2019-02-19T09:13:06.565Z,9.6
2019-02-19T09:14:15.971Z,9.6
2019-02-19T09:15:25.307Z,9.6
2019-02-19T09:16:34.849Z,9.6
2019-02-19T09:17:51.519Z,9.6
2019-02-19T09:18:53.427Z,9.7
2019-02-19T09:20:03.011Z,9.7
2019-02-19T09:21:12.208Z,9.8
2019-02-19T09:22:21.616Z,9.9
2019-02-19T09:23:30.949Z,10
2019-02-19T09:24:40.318Z,10
2019-02-19T09:25:49.731Z,10
2019-02-19T09:26:59.084Z,10.1
2019-02-19T09:28:08.468Z,10.3
2019-02-19T09:29:17.885Z,10.4
2019-02-19T09:30:27.234Z,10.4
2019-02-19T09:31:36.625Z,10.5
2019-02-19T09:32:46.014Z,10.5
2019-02-19T09:33:55.401Z,10.5
2019-02-19T09:35:04.788Z,10.2
2019-02-19T09:36:14.182Z,10.1
2019-02-19T09:37:23.569Z,10.2
2019-02-19T09:38:32.959Z,10.2
2019-02-19T09:39:42.356Z,10.2
2019-02-19T09:40:51.759Z,10.1
2019-02-19T09:42:01.238Z,9.9
2019-02-19T09:43:10.526Z,9.9
2019-02-19T09:44:19.902Z,10
2019-02-19T09:45:29.288Z,9.9
2019-02-19T09:46:38.721Z,9.9
2019-02-19T09:47:49.261Z,10
2019-02-19T09:48:58.638Z,10
2019-02-19T09:50:08.037Z,10
2019-02-19T09:51:17.447Z,10.1
2019-02-19T09:52:26.861Z,9.9
2019-02-19T09:53:36.379Z,9.9
2019-02-19T09:54:45.643Z,9.9
2019-02-19T09:55:54.969Z,9.9
2019-02-19T09:57:04.373Z,9.8
2019-02-19T09:58:13.765Z,9.7
2019-02-19T09:59:23.129Z,9.8
2019-02-19T10:00:32.558Z,9.8
2019-02-19T10:01:41.895Z,9.8
2019-02-19T10:02:51.279Z,9.7
2019-02-19T10:04:00.830Z,9.6
2019-02-19T10:05:10.055Z,9.7
2019-02-19T10:06:19.474Z,9.6
2019-02-19T10:07:28.817Z,9.7
2019-02-19T10:08:38.196Z,9.6
2019-02-19T10:09:47.588Z,9.7
2019-02-19T10:10:56.955Z,9.7
2019-02-19T10:12:06.356Z,9.7
2019-02-19T10:13:15.716Z,9.7
2019-02-19T10:14:25.136Z,9.8
2019-02-19T10:15:34.497Z,9.7
2019-02-19T10:16:43.901Z,9.7
2019-02-19T10:17:53.253Z,9.7
2019-02-19T10:19:02.692Z,9.6
2019-02-19T10:20:13.378Z,9.6
2019-02-19T10:21:21.418Z,9.6
2019-02-19T10:22:30.814Z,9.5
2019-02-19T10:23:40.175Z,9.6
2019-02-19T10:24:49.546Z,9.7
2019-02-19T10:25:58.911Z,9.8
2019-02-19T10:27:08.379Z,9.8
2019-02-19T10:28:17.778Z,9.9
2019-02-19T10:29:27.086Z,9.8
2019-02-19T10:30:36.457Z,9.9
2019-02-19T10:31:45.846Z,9.8
2019-02-19T10:32:55.188Z,9.9
2019-02-19T10:34:04.581Z,9.7
2019-02-19T10:35:13.958Z,9.7
2019-02-19T10:36:23.339Z,9.7
2019-02-19T10:37:32.779Z,9.8
2019-02-19T10:38:42.113Z,9.9
2019-02-19T10:39:51.476Z,9.9
2019-02-19T10:41:00.866Z,9.9
2019-02-19T10:42:10.261Z,9.9
2019-02-19T10:43:19.629Z,9.8
2019-02-19T10:44:29.101Z,10
2019-02-19T10:45:38.396Z,9.9
2019-02-19T10:46:47.790Z,9.9
2019-02-19T10:47:57.166Z,9.9
2019-02-19T10:49:06.547Z,9.9
2019-02-19T10:50:15.984Z,10
2019-02-19T10:51:25.431Z,10.1
2019-02-19T10:52:34.745Z,10
2019-02-19T10:53:44.095Z,9.9
2019-02-19T10:54:53.484Z,9.9
2019-02-19T10:56:02.875Z,9.9
2019-02-19T10:57:12.392Z,10
2019-02-19T10:58:23.081Z,10.2
2019-02-19T10:59:31.037Z,10.2
2019-02-19T11:00:40.453Z,10.3
2019-02-19T11:01:49.838Z,10.3
2019-02-19T11:02:59.224Z,10.4
2019-02-19T11:04:08.679Z,10.5
2019-02-19T11:05:18.038Z,10.6
2019-02-19T11:06:27.448Z,10.6
2019-02-19T11:07:36.834Z,10.6
2019-02-19T11:08:46.332Z,10.6
2019-02-19T11:09:55.625Z,10.7
2019-02-19T11:11:05.042Z,10.6
2019-02-19T11:12:14.462Z,10.5
2019-02-19T11:13:23.853Z,10.6
2019-02-19T11:14:33.308Z,10.6
2019-02-19T11:15:42.652Z,10.5
2019-02-19T11:16:52.311Z,10.3
2019-02-19T11:18:01.475Z,10.3
2019-02-19T11:19:10.892Z,10.4
2019-02-19T11:20:20.332Z,10.4
2019-02-19T11:21:29.701Z,10.4
2019-02-19T11:22:39.126Z,10.3
2019-02-19T11:23:48.613Z,10.5
2019-02-19T11:24:57.932Z,10.6
2019-02-19T11:26:07.349Z,10.6
2019-02-19T11:27:16.977Z,10.7
2019-02-19T11:28:26.221Z,10.4
2019-02-19T11:29:35.585Z,10.3
2019-02-19T11:30:45.079Z,10.4
2019-02-19T11:31:54.445Z,10.6
2019-02-19T11:33:03.870Z,10.7
2019-02-19T11:34:13.209Z,10.5
2019-02-19T11:35:22.649Z,10.4
2019-02-19T11:36:32.039Z,10.5
2019-02-19T11:37:41.501Z,10.6
2019-02-19T11:38:50.863Z,10.7
2019-02-19T11:40:00.278Z,10.7
2019-02-19T11:41:09.681Z,10.6
2019-02-19T11:42:19.105Z,10.7
2019-02-19T11:43:28.506Z,10.4
2019-02-19T11:44:37.929Z,10.3
2019-02-19T11:45:47.342Z,10.4
2019-02-19T11:46:56.745Z,10.5
2019-02-19T11:48:06.155Z,10.5
2019-02-19T11:49:15.582Z,10.4
2019-02-19T11:50:24.944Z,10.4
2019-02-19T11:51:34.365Z,10.2
2019-02-19T11:52:43.800Z,10.2
2019-02-19T11:53:53.189Z,10.1
2019-02-19T11:55:02.551Z,10.3
2019-02-19T11:56:12.020Z,10.3
2019-02-19T11:57:21.424Z,10.3
2019-02-19T11:58:31.044Z,10.4
2019-02-19T11:59:40.203Z,10.4
2019-02-19T12:00:49.565Z,10.5
2019-02-19T12:01:59.000Z,10.5
2019-02-19T12:03:08.398Z,10.6
2019-02-19T12:04:17.779Z,10.6
2019-02-19T12:05:27.187Z,10.6
2019-02-19T12:06:36.585Z,10.6
2019-02-19T12:07:46.048Z,10.5
2019-02-19T12:08:55.415Z,10.7
2019-02-19T12:10:04.883Z,10.6
2019-02-19T12:11:14.240Z,10.8
2019-02-19T12:12:23.826Z,10.9
2019-02-19T12:13:33.074Z,10.9
2019-02-19T12:14:42.483Z,11.1
2019-02-19T12:15:51.882Z,11.1
2019-02-19T12:17:01.340Z,11.1
2019-02-19T12:18:10.746Z,11.1
2019-02-19T12:19:20.163Z,11.3
2019-02-19T12:20:29.576Z,11.1
2019-02-19T12:21:38.990Z,11.1
2019-02-19T12:22:48.427Z,11.1
2019-02-19T12:23:57.888Z,11
2019-02-19T12:25:07.262Z,11.1
2019-02-19T12:26:16.690Z,11.2
2019-02-19T12:27:26.118Z,11.2
2019-02-19T12:28:36.928Z,11.3
2019-02-19T12:29:44.969Z,10.9
2019-02-19T12:30:54.391Z,10.8
2019-02-19T12:32:03.822Z,10.8
2019-02-19T12:33:13.248Z,11
2019-02-19T12:34:22.693Z,10.8
2019-02-19T12:35:32.091Z,10.9
2019-02-19T12:36:41.528Z,11
2019-02-19T12:37:50.950Z,11.1
2019-02-19T12:39:00.559Z,11
2019-02-19T12:40:09.823Z,10.8
2019-02-19T12:41:19.237Z,11
2019-02-19T12:42:28.656Z,10.8
2019-02-19T12:43:38.126Z,10.8
2019-02-19T12:44:47.526Z,10.9
2019-02-19T12:45:57.057Z,10.8
2019-02-19T12:47:06.380Z,10.8
2019-02-19T12:48:15.800Z,10.9
2019-02-19T12:49:25.220Z,10.9
2019-02-19T12:50:34.676Z,10.9
2019-02-19T12:51:44.156Z,10.9
2019-02-19T12:52:53.509Z,10.9
2019-02-19T12:54:02.918Z,10.8
2019-02-19T12:55:12.505Z,10.8
2019-02-19T12:56:21.765Z,10.8
2019-02-19T12:57:31.225Z,10.6
2019-02-19T12:58:40.733Z,10.5
2019-02-19T12:59:56.357Z,10.7
2019-02-19T13:00:59.472Z,10.8
2019-02-19T13:02:08.885Z,10.7
2019-02-19T13:03:18.280Z,10.8
2019-02-19T13:04:27.704Z,10.9
2019-02-19T13:05:37.119Z,10.9
2019-02-19T13:06:46.624Z,10.9
2019-02-19T13:07:55.955Z,10.9
2019-02-19T13:09:05.374Z,11
2019-02-19T13:10:14.782Z,10.9
2019-02-19T13:11:24.215Z,11
2019-02-19T13:12:33.622Z,10.9
2019-02-19T13:13:43.031Z,10.9
2019-02-19T13:14:52.461Z,10.9
2019-02-19T13:16:01.896Z,11
2019-02-19T13:17:11.322Z,11
2019-02-19T13:18:20.725Z,10.9
2019-02-19T13:19:31.641Z,11
2019-02-19T13:20:39.594Z,11
2019-02-19T13:21:48.977Z,11
2019-02-19T13:22:58.485Z,11
2019-02-19T13:24:07.858Z,11
2019-02-19T13:25:17.525Z,11
2019-02-19T13:26:26.759Z,10.9
2019-02-19T13:27:36.051Z,10.8
2019-02-19T13:28:45.468Z,10.8
2019-02-19T13:29:54.890Z,10.9
2019-02-19T13:31:04.304Z,10.8
2019-02-19T13:32:13.716Z,10.9
2019-02-19T13:33:23.128Z,10.9
2019-02-19T13:34:32.563Z,10.9
2019-02-19T13:35:42.026Z,11
2019-02-19T13:36:51.379Z,10.9
2019-02-19T13:38:00.797Z,10.8
2019-02-19T13:39:10.251Z,10.8
2019-02-19T13:40:19.637Z,10.9
2019-02-19T13:41:29.054Z,11
2019-02-19T13:42:38.497Z,11.1
2019-02-19T13:43:47.892Z,11.3
2019-02-19T13:44:57.365Z,11.4
2019-02-19T13:46:06.783Z,11.5
2019-02-19T13:47:16.296Z,11.4
2019-02-19T13:48:25.593Z,11.1
2019-02-19T13:49:35.029Z,11.3
2019-02-19T13:50:44.443Z,11.5
2019-02-19T13:51:53.873Z,11.5
2019-02-19T13:53:03.295Z,11.5
2019-02-19T13:54:12.730Z,11.5
2019-02-19T13:55:22.205Z,11.5
2019-02-19T13:56:31.616Z,11.4
2019-02-19T13:57:41.065Z,11.4
2019-02-19T13:58:50.505Z,11.3
2019-02-19T13:59:59.902Z,11.1
2019-02-19T14:01:09.334Z,10.9
2019-02-19T14:02:18.957Z,11
2019-02-19T14:03:28.159Z,11
2019-02-19T14:04:37.640Z,10.8
2019-02-19T14:05:47.021Z,10.9
2019-02-19T14:06:56.453Z,10.8
2019-02-19T14:08:13.949Z,10.8
2019-02-19T14:09:15.273Z,10.8
2019-02-19T14:10:24.688Z,10.8
2019-02-19T14:11:34.213Z,10.8
2019-02-19T14:12:43.522Z,10.9
2019-02-19T14:13:52.931Z,10.9
2019-02-19T14:15:02.391Z,10.9
2019-02-19T14:16:11.881Z,10.9
2019-02-19T14:17:21.194Z,10.8
2019-02-19T14:18:30.627Z,10.9
2019-02-19T14:19:40.010Z,10.9
2019-02-19T14:20:49.474Z,10.9
2019-02-19T14:21:58.847Z,10.8
2019-02-19T14:23:08.260Z,10.9
2019-02-19T14:24:17.671Z,11.1
2019-02-19T14:25:27.107Z,11
2019-02-19T14:26:36.612Z,11.1
2019-02-19T14:27:45.910Z,11.1
2019-02-19T14:28:55.361Z,11.1
2019-02-19T14:30:04.738Z,11
2019-02-19T14:31:14.217Z,10.9
2019-02-19T14:32:23.570Z,10.9
2019-02-19T14:33:33.064Z,10.8
2019-02-19T14:34:42.393Z,10.9
2019-02-19T14:35:51.817Z,10.9
2019-02-19T14:37:01.306Z,10.9
2019-02-19T14:38:10.714Z,10.9
2019-02-19T14:39:20.021Z,10.8
2019-02-19T14:40:29.426Z,10.8
2019-02-19T14:41:38.881Z,10.9
2019-02-19T14:42:48.546Z,10.9
2019-02-19T14:43:57.662Z,11
2019-02-19T14:45:07.085Z,10.9
2019-02-19T14:46:16.513Z,10.9
2019-02-19T14:47:25.891Z,10.9
2019-02-19T14:48:35.350Z,10.8
2019-02-19T14:49:47.279Z,10.8
2019-02-19T14:50:54.124Z,10.7
2019-02-19T14:52:03.544Z,10.7
2019-02-19T14:53:12.924Z,10.7
2019-02-19T14:54:22.337Z,10.7
2019-02-19T14:55:31.734Z,10.7
2019-02-19T14:56:41.202Z,10.7
2019-02-19T14:57:50.538Z,10.7
2019-02-19T14:58:59.947Z,10.7
2019-02-19T15:00:09.409Z,10.7
2019-02-19T15:01:18.738Z,10.6
2019-02-19T15:02:28.144Z,10.6
2019-02-19T15:03:37.549Z,10.6
2019-02-19T15:04:46.940Z,10.7
2019-02-19T15:05:56.365Z,10.6
2019-02-19T15:07:05.741Z,10.6
2019-02-19T15:08:15.129Z,10.6
2019-02-19T15:09:24.554Z,10.6
2019-02-19T15:10:33.939Z,10.5
2019-02-19T15:11:43.329Z,10.6
2019-02-19T15:12:52.723Z,10.5
2019-02-19T15:14:02.130Z,10.6
2019-02-19T15:15:11.494Z,10.6
2019-02-19T15:16:22.682Z,10.5
2019-02-19T15:17:30.323Z,10.5
2019-02-19T15:18:39.686Z,10.5
2019-02-19T15:19:49.080Z,10.4
2019-02-19T15:20:58.471Z,10.4
2019-02-19T15:22:07.841Z,10.4
2019-02-19T15:23:17.260Z,10.4
2019-02-19T15:24:26.621Z,10.5
2019-02-19T15:25:36.023Z,10.5
2019-02-19T15:26:45.409Z,10.4
2019-02-19T15:27:54.773Z,10.4
2019-02-19T15:29:04.169Z,10.3
2019-02-19T15:30:13.554Z,10.3
2019-02-19T15:31:22.936Z,10.3
2019-02-19T15:32:32.372Z,10.3
2019-02-19T15:33:41.728Z,10.3
2019-02-19T15:34:51.108Z,10.3
2019-02-19T15:36:00.501Z,10.3
2019-02-19T15:37:10.738Z,10.3
2019-02-19T15:38:19.264Z,10.3
2019-02-19T15:39:28.650Z,10.2
2019-02-19T15:40:37.999Z,10.2
2019-02-19T15:41:47.423Z,10.2
2019-02-19T15:42:56.761Z,10.2
2019-02-19T15:44:06.166Z,10.2
2019-02-19T15:45:15.548Z,10.2
2019-02-19T15:46:24.929Z,10.1
2019-02-19T15:47:34.265Z,10.1
2019-02-19T15:48:43.650Z,10.1
2019-02-19T15:49:53.022Z,10.1
2019-02-19T15:51:02.524Z,10.1